Time;durP1;ratioP1;P1;durP2;ratioP2;P2;SDS_P1;SDS_P2;PMS_P1;PMS_P2;Temp;Humidity;BMP_temperature;BMP_pressure;BME280_temperature;BME280_humidity;BME280_pressure;Samples;Min_cycle;Max_cycle;Signal;HPM_P1;HPM_P2
2021/08/18 00:00:16;;;;;;;6.87;5.73;;;15.50;99.90;;;;;;5054420;28;20468;-72
2021/08/18 00:02:41;;;;;;;6.07;5.47;;;15.60;99.90;;;;;;5054020;28;20236;-72
2021/08/18 00:05:10;;;;;;;6.50;5.90;;;15.50;99.90;;;;;;5053118;28;20412;-72
2021/08/18 00:07:35;;;;;;;5.23;4.73;;;15.50;99.90;;;;;;5053267;28;20194;-72
2021/08/18 00:10:02;;;;;;;4.73;4.33;;;15.60;99.90;;;;;;5053941;28;20436;-72
2021/08/18 00:12:28;;;;;;;4.47;4.00;;;15.50;99.90;;;;;;5053762;28;20642;-73
2021/08/18 00:14:53;;;;;;;4.30;3.90;;;15.60;99.90;;;;;;5053474;28;20456;-72
2021/08/18 00:17:19;;;;;;;4.43;4.03;;;15.60;99.90;;;;;;5053590;28;20607;-71
2021/08/18 00:19:45;;;;;;;3.77;3.40;;;15.60;99.90;;;;;;5052303;28;20198;-72
2021/08/18 00:22:10;;;;;;;4.00;3.60;;;15.60;99.90;;;;;;5053534;28;20647;-72
2021/08/18 00:24:36;;;;;;;3.87;3.57;;;15.60;99.90;;;;;;5053305;28;20175;-72
2021/08/18 00:27:01;;;;;;;3.60;3.30;;;15.60;99.90;;;;;;5036105;28;20170;-72
2021/08/18 00:29:27;;;;;;;4.73;4.23;;;15.60;99.90;;;;;;5056622;28;20232;-72
2021/08/18 00:31:52;;;;;;;2.97;2.77;;;15.60;99.90;;;;;;5056984;28;20539;-72
2021/08/18 00:34:18;;;;;;;4.27;3.87;;;15.60;99.90;;;;;;5057243;28;20198;-72
2021/08/18 00:36:43;;;;;;;4.07;3.77;;;15.50;99.90;;;;;;5056992;28;20178;-72
2021/08/18 00:39:09;;;;;;;3.73;3.43;;;15.60;99.90;;;;;;5038788;28;20689;-72
2021/08/18 00:41:35;;;;;;;3.20;3.00;;;15.60;99.90;;;;;;5056543;28;20202;-72
2021/08/18 00:44:01;;;;;;;3.30;3.00;;;15.60;99.90;;;;;;5057080;28;20236;-72
2021/08/18 00:46:26;;;;;;;3.20;3.00;;;15.60;99.90;;;;;;5056077;28;20412;-72
2021/08/18 00:48:52;;;;;;;2.70;2.50;;;15.60;99.90;;;;;;5056522;28;20260;-71
2021/08/18 00:51:17;;;;;;;2.40;2.20;;;15.60;99.90;;;;;;5056182;28;20506;-71
2021/08/18 00:53:43;;;;;;;2.10;2.00;;;15.70;99.90;;;;;;5038390;28;20179;-71
2021/08/18 00:56:10;;;;;;;1.70;1.60;;;15.70;99.90;;;;;;5056617;28;20527;-71
2021/08/18 00:58:36;;;;;;;2.03;1.67;;;15.80;99.90;;;;;;5056408;28;20289;-71
2021/08/18 01:01:01;;;;;;;1.60;1.50;;;15.70;99.90;;;;;;5057339;28;20956;-71
2021/08/18 01:03:28;;;;;;;2.13;2.03;;;15.80;99.90;;;;;;5057855;28;20166;-71
2021/08/18 01:05:54;;;;;;;1.87;1.77;;;15.70;99.90;;;;;;5056280;28;20174;-71
2021/08/18 01:08:20;;;;;;;2.40;2.20;;;15.70;99.90;;;;;;5057360;28;20411;-71
2021/08/18 01:10:46;;;;;;;2.43;2.23;;;15.60;99.90;;;;;;5057085;28;20483;-72
2021/08/18 01:13:12;;;;;;;2.30;2.10;;;15.50;99.90;;;;;;5056334;28;20688;-71
2021/08/18 01:15:38;;;;;;;2.00;1.90;;;15.50;99.90;;;;;;5056226;28;20455;-71
2021/08/18 01:18:06;;;;;;;2.17;1.97;;;15.50;99.90;;;;;;5056156;28;20631;-72
2021/08/18 01:20:36;;;;;;;2.30;2.10;;;15.50;99.90;;;;;;5056055;28;20991;-72
2021/08/18 01:23:04;;;;;;;2.03;1.90;;;15.60;99.90;;;;;;5056558;28;20770;-72
2021/08/18 01:25:29;;;;;;;2.63;2.40;;;15.60;99.90;;;;;;5055787;28;20469;-71
2021/08/18 01:27:58;;;;;;;2.90;2.50;;;15.50;99.90;;;;;;5037263;28;20475;-71
2021/08/18 01:30:25;;;;;;;2.83;2.63;;;15.40;99.90;;;;;;5055714;28;20343;-71
2021/08/18 01:32:55;;;;;;;4.03;3.05;;;15.40;99.90;;;;;;5055785;28;20400;-71
2021/08/18 01:35:25;;;;;;;2.43;2.23;;;15.50;99.90;;;;;;5055968;28;20186;-72
2021/08/18 01:37:51;;;;;;;3.73;2.53;;;15.50;99.90;;;;;;5055572;28;20420;-71
2021/08/18 01:40:17;;;;;;;2.27;2.07;;;15.50;99.90;;;;;;5037608;28;20441;-71
2021/08/18 01:42:43;;;;;;;2.60;2.40;;;15.60;99.90;;;;;;5055934;28;20432;-71
2021/08/18 01:45:11;;;;;;;2.53;2.33;;;15.70;99.90;;;;;;5056046;28;20198;-71
2021/08/18 01:47:36;;;;;;;2.50;2.30;;;15.70;99.90;;;;;;5055599;28;20432;-72
2021/08/18 01:50:03;;;;;;;3.00;2.27;;;15.80;99.90;;;;;;5055696;28;20806;-72
2021/08/18 01:52:28;;;;;;;3.60;3.13;;;15.80;99.90;;;;;;5055555;28;20197;-72
2021/08/18 01:54:54;;;;;;;4.20;3.90;;;15.80;99.90;;;;;;5056079;28;20456;-71
2021/08/18 01:57:20;;;;;;;4.17;3.77;;;15.70;99.90;;;;;;5037435;28;20283;-71
2021/08/18 01:59:45;;;;;;;4.40;4.00;;;15.70;99.90;;;;;;5055629;28;20178;-71
2021/08/18 02:02:11;;;;;;;4.50;4.10;;;15.70;99.90;;;;;;5055785;28;20739;-71
2021/08/18 02:04:37;;;;;;;6.23;5.43;;;15.70;99.90;;;;;;5055494;28;20522;-70
2021/08/18 02:07:03;;;;;;;5.70;5.20;;;15.50;99.90;;;;;;5056062;28;20215;-71
2021/08/18 02:09:28;;;;;;;8.37;6.10;;;15.60;99.90;;;;;;5055125;28;20193;-71
2021/08/18 02:11:54;;;;;;;7.77;6.70;;;15.60;99.90;;;;;;5055342;28;20440;-71
2021/08/18 02:14:20;;;;;;;9.23;8.33;;;15.60;99.90;;;;;;5054638;28;20442;-71
2021/08/18 02:16:45;;;;;;;8.70;7.83;;;15.60;99.90;;;;;;5055101;28;20889;-72
2021/08/18 02:19:11;;;;;;;9.57;7.67;;;15.60;99.90;;;;;;5054571;28;20217;-71
2021/08/18 02:21:37;;;;;;;9.20;8.13;;;15.60;99.90;;;;;;5055279;28;20280;-73
2021/08/18 02:24:02;;;;;;;11.10;8.70;;;15.60;99.90;;;;;;5037567;28;20269;-72
2021/08/18 02:26:28;;;;;;;10.20;8.67;;;15.60;99.90;;;;;;5055184;28;20221;-71
2021/08/18 02:28:53;;;;;;;12.13;10.03;;;15.60;99.90;;;;;;5049078;28;20209;-72
2021/08/18 02:31:19;;;;;;;10.97;9.17;;;15.60;99.90;;;;;;5037120;28;20210;-72
2021/08/18 02:33:44;;;;;;;11.83;9.10;;;15.60;99.90;;;;;;5055418;28;20180;-71
2021/08/18 02:36:10;;;;;;;13.77;10.10;;;15.70;99.90;;;;;;5037447;28;20182;-72
2021/08/18 02:38:36;;;;;;;11.80;9.37;;;15.70;99.90;;;;;;5054464;28;20171;-72
2021/08/18 02:41:01;;;;;;;12.27;9.60;;;15.70;99.90;;;;;;5054905;28;20205;-72
2021/08/18 02:43:27;;;;;;;11.43;9.87;;;15.60;99.90;;;;;;5054727;28;20221;-72
2021/08/18 02:45:53;;;;;;;13.40;10.97;;;15.60;99.90;;;;;;5037038;28;20546;-72
2021/08/18 02:48:19;;;;;;;12.10;10.13;;;15.70;99.90;;;;;;5054858;28;20174;-72
2021/08/18 02:50:44;;;;;;;13.80;10.63;;;15.60;99.90;;;;;;5054092;28;20463;-72
2021/08/18 02:53:09;;;;;;;13.57;11.50;;;15.60;99.90;;;;;;5054334;28;20548;-72
2021/08/18 02:55:35;;;;;;;12.70;10.27;;;15.60;99.90;;;;;;5054709;28;20228;-72
2021/08/18 02:58:01;;;;;;;14.20;11.50;;;15.60;99.90;;;;;;5054230;28;20198;-72
2021/08/18 03:00:26;;;;;;;13.30;11.37;;;15.60;99.90;;;;;;5054151;28;20241;-72
2021/08/18 03:02:52;;;;;;;14.13;11.43;;;15.70;99.90;;;;;;5055629;28;20243;-71
2021/08/18 03:05:19;;;;;;;12.60;10.60;;;15.70;99.90;;;;;;5055334;28;20177;-72
2021/08/18 03:07:44;;;;;;;14.10;12.27;;;15.80;99.90;;;;;;5055306;28;20170;-72
2021/08/18 03:10:10;;;;;;;16.60;11.90;;;15.70;99.90;;;;;;5054309;28;20447;-72
2021/08/18 03:12:36;;;;;;;14.83;11.97;;;15.80;99.90;;;;;;5054341;28;20201;-72
2021/08/18 03:15:04;;;;;;;18.53;14.50;;;15.60;99.90;;;;;;5036068;28;21021;-72
2021/08/18 03:17:29;;;;;;;14.03;11.47;;;15.60;99.90;;;;;;5055094;28;20454;-72
2021/08/18 03:19:55;;;;;;;13.57;11.93;;;15.60;99.90;;;;;;5054383;28;20483;-72
2021/08/18 03:22:20;;;;;;;15.53;13.70;;;15.60;99.90;;;;;;5065836;28;20170;-72
2021/08/18 03:24:46;;;;;;;16.70;13.50;;;15.70;99.90;;;;;;5058352;28;20191;-72
2021/08/18 03:27:11;;;;;;;16.23;12.87;;;15.70;99.90;;;;;;5054359;28;20540;-71
2021/08/18 03:29:37;;;;;;;16.37;13.20;;;15.70;99.90;;;;;;5053836;28;20178;-71
2021/08/18 03:32:03;;;;;;;15.60;12.13;;;15.70;99.90;;;;;;5054375;28;20174;-71
2021/08/18 03:34:28;;;;;;;16.73;14.02;;;15.80;99.90;;;;;;5052908;28;20939;-71
2021/08/18 03:36:54;;;;;;;16.03;12.93;;;15.80;99.90;;;;;;5036331;28;20209;-71
2021/08/18 03:39:19;;;;;;;14.93;12.20;;;15.90;99.90;;;;;;5053258;28;20167;-71
2021/08/18 03:41:45;;;;;;;15.73;13.10;;;15.90;99.90;;;;;;5053575;28;20186;-71
2021/08/18 03:44:10;;;;;;;15.37;13.10;;;15.80;99.90;;;;;;5053635;28;20166;-71
2021/08/18 03:46:36;;;;;;;16.13;12.63;;;15.90;99.90;;;;;;5054142;28;20182;-71
2021/08/18 03:49:01;;;;;;;15.93;12.50;;;15.90;99.90;;;;;;5052975;28;20273;-71
2021/08/18 03:51:27;;;;;;;15.33;12.73;;;15.90;99.90;;;;;;5053475;28;20701;-71
2021/08/18 03:53:52;;;;;;;14.60;11.90;;;15.90;99.90;;;;;;5054170;28;20174;-72
2021/08/18 03:56:18;;;;;;;15.13;13.23;;;16.00;99.90;;;;;;5036221;28;20256;-72
2021/08/18 03:58:44;;;;;;;16.40;13.50;;;16.00;99.90;;;;;;5053779;28;20288;-72
2021/08/18 04:01:10;;;;;;;19.20;14.43;;;16.00;99.90;;;;;;5051834;28;20300;-72
2021/08/18 04:03:36;;;;;;;18.57;12.00;;;16.00;99.90;;;;;;5048688;28;20413;-72
2021/08/18 04:06:03;;;;;;;15.47;12.37;;;16.00;99.90;;;;;;5047491;28;20240;-73
2021/08/18 04:08:28;;;;;;;15.70;12.80;;;16.00;99.90;;;;;;5049778;28;21288;-73
2021/08/18 04:10:54;;;;;;;19.83;13.13;;;15.90;99.90;;;;;;5051172;28;20492;-72
2021/08/18 04:13:19;;;;;;;15.00;12.67;;;16.00;99.90;;;;;;5039100;28;20221;-72
2021/08/18 04:15:45;;;;;;;17.20;15.10;;;16.00;99.90;;;;;;5042266;28;20935;-72
2021/08/18 04:18:11;;;;;;;19.20;14.67;;;16.00;99.90;;;;;;5058041;28;20489;-72
2021/08/18 04:20:37;;;;;;;17.80;14.23;;;16.00;99.90;;;;;;5056905;28;20214;-72
2021/08/18 04:23:05;;;;;;;17.50;14.17;;;16.00;99.90;;;;;;5052636;28;20181;-72
2021/08/18 04:25:37;;;;;;;17.53;14.60;;;16.00;99.90;;;;;;5039564;28;20580;-73
2021/08/18 04:28:03;;;;;;;18.57;14.20;;;16.00;99.90;;;;;;5031514;28;20426;-72
2021/08/18 04:30:29;;;;;;;16.53;13.53;;;16.00;99.90;;;;;;5038491;28;20452;-72
2021/08/18 04:32:54;;;;;;;17.27;13.50;;;16.00;99.90;;;;;;5057946;28;20170;-74
2021/08/18 04:35:21;;;;;;;16.70;13.70;;;16.00;99.90;;;;;;5038216;28;20203;-74
2021/08/18 04:37:47;;;;;;;18.77;14.87;;;16.00;99.90;;;;;;5027340;28;20187;-73
2021/08/18 04:40:14;;;;;;;19.20;14.50;;;16.00;99.90;;;;;;5057630;28;20834;-72
2021/08/18 04:42:42;;;;;;;19.00;14.70;;;16.00;99.90;;;;;;5055641;28;20178;-72
2021/08/18 04:45:10;;;;;;;18.70;14.23;;;16.00;99.90;;;;;;5045812;28;20448;-72
2021/08/18 04:47:37;;;;;;;19.60;15.30;;;16.00;99.90;;;;;;5021101;28;20420;-72
2021/08/18 04:50:04;;;;;;;19.40;15.53;;;16.00;99.90;;;;;;5038469;28;20490;-72
2021/08/18 04:52:33;;;;;;;18.90;14.20;;;16.00;99.90;;;;;;5057108;28;20838;-72
2021/08/18 04:54:59;;;;;;;19.30;15.87;;;15.90;99.90;;;;;;5039326;28;20458;-72
2021/08/18 04:57:24;;;;;;;20.87;13.90;;;15.90;99.90;;;;;;5056941;28;20519;-72
2021/08/18 04:59:50;;;;;;;18.63;15.47;;;15.90;99.90;;;;;;5055638;28;20261;-72
2021/08/18 05:02:16;;;;;;;19.37;14.73;;;15.90;99.90;;;;;;5038861;28;20253;-74
2021/08/18 05:04:42;;;;;;;19.80;15.23;;;15.90;99.90;;;;;;5056787;28;20432;-72
2021/08/18 05:07:08;;;;;;;18.83;14.83;;;16.00;99.90;;;;;;5056647;28;20513;-74
2021/08/18 05:09:34;;;;;;;18.90;14.70;;;15.90;99.90;;;;;;5056429;28;20181;-72
2021/08/18 05:11:59;;;;;;;17.57;14.33;;;16.00;99.90;;;;;;5054876;28;20417;-72
2021/08/18 05:14:25;;;;;;;18.67;13.30;;;16.00;99.90;;;;;;5045801;28;20225;-73
2021/08/18 05:16:51;;;;;;;13.43;11.20;;;16.00;99.90;;;;;;5056340;28;20174;-73
2021/08/18 05:19:17;;;;;;;12.37;10.07;;;16.00;99.90;;;;;;5038336;28;20166;-72
2021/08/18 05:21:42;;;;;;;13.57;11.33;;;16.00;99.90;;;;;;5056350;28;20443;-73
2021/08/18 05:24:08;;;;;;;14.20;11.40;;;16.00;99.90;;;;;;5056561;28;20198;-73
2021/08/18 05:26:34;;;;;;;18.50;14.07;;;16.00;99.90;;;;;;5056092;28;20487;-71
2021/08/18 05:28:59;;;;;;;17.53;13.83;;;16.00;99.90;;;;;;5055414;28;20278;-71
2021/08/18 05:31:25;;;;;;;20.30;14.00;;;16.00;99.90;;;;;;5056432;28;20324;-72
2021/08/18 05:33:54;;;;;;;20.57;14.90;;;16.00;99.90;;;;;;5038168;28;20514;-72
2021/08/18 05:36:20;;;;;;;21.20;15.53;;;16.00;99.90;;;;;;5056273;28;20205;-72
2021/08/18 05:38:46;;;;;;;20.67;17.92;;;16.00;99.90;;;;;;5037451;28;20408;-72
2021/08/18 05:41:11;;;;;;;20.87;16.60;;;16.10;99.90;;;;;;5055898;28;20194;-72
2021/08/18 05:43:38;;;;;;;21.77;17.77;;;16.10;99.90;;;;;;5037419;28;20488;-73
2021/08/18 05:46:04;;;;;;;21.90;17.47;;;16.10;99.90;;;;;;5037595;28;20190;-73
2021/08/18 05:48:29;;;;;;;24.63;17.23;;;16.00;99.90;;;;;;5054544;28;20475;-72
2021/08/18 05:50:55;;;;;;;19.00;15.63;;;16.10;99.90;;;;;;5037003;28;20210;-72
2021/08/18 05:53:21;;;;;;;19.20;15.90;;;16.00;99.90;;;;;;5053828;28;20194;-72
2021/08/18 05:55:50;;;;;;;19.60;16.20;;;16.00;99.90;;;;;;5055024;28;20500;-72
2021/08/18 05:58:16;;;;;;;21.17;15.90;;;15.90;99.90;;;;;;5054692;28;20178;-72
2021/08/18 06:00:43;;;;;;;20.27;14.70;;;15.80;99.90;;;;;;5055432;28;20429;-73
2021/08/18 06:03:09;;;;;;;16.70;13.20;;;15.80;99.90;;;;;;5055290;28;20558;-72
2021/08/18 06:05:36;;;;;;;14.57;12.40;;;15.90;99.90;;;;;;5037285;28;20503;-72
2021/08/18 06:08:02;;;;;;;10.30;9.20;;;15.90;99.90;;;;;;5055395;28;20770;-72
2021/08/18 06:10:28;;;;;;;9.13;8.23;;;15.90;99.90;;;;;;5054829;28;20882;-72
2021/08/18 06:12:53;;;;;;;9.20;7.00;;;15.70;99.90;;;;;;5055515;28;20409;-72
2021/08/18 06:15:19;;;;;;;8.90;8.00;;;15.70;99.90;;;;;;5056225;28;20332;-72
2021/08/18 06:17:47;;;;;;;7.63;6.90;;;15.60;99.90;;;;;;5057053;28;20189;-71
2021/08/18 06:20:13;;;;;;;8.87;8.07;;;15.60;99.90;;;;;;5054760;28;20474;-72
2021/08/18 06:22:39;;;;;;;8.07;7.20;;;15.60;99.90;;;;;;5056825;28;20401;-72
2021/08/18 06:25:06;;;;;;;8.90;6.83;;;15.70;99.90;;;;;;5055101;28;20411;-71
2021/08/18 06:27:31;;;;;;;7.83;6.47;;;15.80;99.90;;;;;;5056075;28;20181;-71
2021/08/18 06:29:57;;;;;;;7.87;6.93;;;16.00;99.90;;;;;;5055172;28;20441;-72
2021/08/18 06:32:23;;;;;;;9.23;6.87;;;16.10;99.90;;;;;;5056389;28;20171;-72
2021/08/18 06:34:53;;;;;;;7.10;6.40;;;16.20;99.90;;;;;;5056566;28;20613;-72
2021/08/18 06:37:19;;;;;;;9.30;7.17;;;16.30;99.90;;;;;;5037985;28;20682;-72
2021/08/18 06:39:45;;;;;;;9.13;7.60;;;16.20;99.90;;;;;;5056279;28;20461;-72
2021/08/18 06:42:11;;;;;;;8.70;7.70;;;16.30;99.90;;;;;;5046024;28;20420;-72
2021/08/18 06:44:36;;;;;;;8.10;7.30;;;16.30;99.90;;;;;;5059981;28;20525;-73
2021/08/18 06:47:03;;;;;;;11.17;8.47;;;16.10;99.90;;;;;;5054608;28;20501;-72
2021/08/18 06:49:28;;;;;;;12.27;7.93;;;16.20;99.90;;;;;;5053989;28;20190;-72
2021/08/18 06:51:54;;;;;;;11.23;9.10;;;16.10;99.90;;;;;;5054904;28;20448;-72
2021/08/18 06:54:19;;;;;;;10.63;9.53;;;16.20;99.90;;;;;;5054486;28;20209;-72
2021/08/18 06:56:45;;;;;;;10.80;8.60;;;16.20;99.90;;;;;;5054838;28;20285;-73
2021/08/18 06:59:10;;;;;;;10.85;9.15;;;16.30;99.90;;;;;;5053854;28;20412;-73
2021/08/18 07:01:36;;;;;;;11.23;9.20;;;16.40;99.90;;;;;;5036728;28;20273;-73
2021/08/18 07:04:03;;;;;;;11.50;9.10;;;16.50;99.90;;;;;;5053646;28;20223;-72
2021/08/18 07:06:29;;;;;;;14.60;11.07;;;16.60;99.90;;;;;;5054186;28;20167;-72
2021/08/18 07:08:54;;;;;;;15.83;12.80;;;16.70;99.90;;;;;;5054057;28;20562;-72
2021/08/18 07:11:20;;;;;;;14.13;11.83;;;16.70;99.90;;;;;;5053713;28;20193;-72
2021/08/18 07:13:45;;;;;;;14.47;12.93;;;16.90;99.90;;;;;;5053807;28;20166;-72
2021/08/18 07:16:11;;;;;;;16.60;13.77;;;17.00;99.90;;;;;;5035698;28;20214;-72
2021/08/18 07:18:36;;;;;;;16.33;14.13;;;17.00;99.90;;;;;;5054047;28;20252;-72
2021/08/18 07:21:02;;;;;;;20.13;16.10;;;17.10;99.90;;;;;;5053975;28;20265;-72
2021/08/18 07:23:27;;;;;;;20.13;16.13;;;17.10;99.90;;;;;;5053729;28;20171;-73
2021/08/18 07:25:53;;;;;;;19.30;16.57;;;16.90;99.90;;;;;;5053627;28;20573;-71
2021/08/18 07:28:18;;;;;;;19.73;15.97;;;16.90;99.90;;;;;;5053163;28;20216;-72
2021/08/18 07:30:44;;;;;;;21.23;17.50;;;16.90;99.90;;;;;;5053530;28;20244;-73
2021/08/18 07:33:10;;;;;;;22.20;17.40;;;16.90;99.90;;;;;;5053740;28;20659;-73
2021/08/18 07:35:35;;;;;;;22.10;17.50;;;17.00;99.90;;;;;;5053066;28;20206;-73
2021/08/18 07:38:01;;;;;;;20.13;17.20;;;16.90;99.90;;;;;;5053977;28;20602;-73
2021/08/18 07:40:26;;;;;;;22.97;18.70;;;16.90;99.90;;;;;;5053283;28;20182;-72
2021/08/18 07:42:52;;;;;;;24.50;17.83;;;17.00;99.90;;;;;;5053970;28;20190;-72
2021/08/18 07:45:18;;;;;;;21.47;17.60;;;17.00;99.90;;;;;;5035471;28;20222;-74
2021/08/18 07:47:45;;;;;;;23.73;18.50;;;17.00;99.90;;;;;;5053420;28;20535;-72
2021/08/18 07:50:11;;;;;;;24.37;17.80;;;17.10;99.90;;;;;;5052843;28;20828;-72
2021/08/18 07:52:37;;;;;;;21.90;17.63;;;17.00;99.90;;;;;;5035200;28;20531;-72
2021/08/18 07:55:04;;;;;;;21.00;18.20;;;17.10;99.90;;;;;;5053811;28;20539;-72
2021/08/18 07:57:29;;;;;;;21.23;16.87;;;17.10;99.90;;;;;;5053020;28;20234;-71
2021/08/18 07:59:55;;;;;;;20.47;16.60;;;17.20;99.90;;;;;;5053332;28;20459;-71
2021/08/18 08:02:22;;;;;;;20.73;17.03;;;17.30;99.90;;;;;;5053056;28;20248;-71
2021/08/18 08:04:48;;;;;;;17.80;15.70;;;17.30;99.90;;;;;;5053147;28;20193;-71
2021/08/18 08:07:14;;;;;;;21.20;17.37;;;17.30;99.90;;;;;;5053338;28;20769;-72
2021/08/18 08:09:40;;;;;;;19.60;16.47;;;17.30;99.90;;;;;;5052952;28;20184;-72
2021/08/18 08:12:05;;;;;;;22.73;17.30;;;17.30;99.90;;;;;;5035684;28;20447;-72
2021/08/18 08:14:31;;;;;;;19.77;16.60;;;17.40;99.90;;;;;;5052913;28;20198;-72
2021/08/18 08:16:56;;;;;;;18.10;15.87;;;17.40;99.90;;;;;;5053093;28;20177;-73
2021/08/18 08:19:22;;;;;;;19.37;15.67;;;17.40;99.90;;;;;;5052310;28;20229;-73
2021/08/18 08:21:48;;;;;;;17.60;15.30;;;17.50;99.90;;;;;;5053425;28;20667;-73
2021/08/18 08:24:14;;;;;;;18.00;16.10;;;17.60;99.90;;;;;;5053008;28;20220;-73
2021/08/18 08:26:40;;;;;;;19.30;15.70;;;17.60;99.90;;;;;;5053171;28;20181;-71
2021/08/18 08:29:05;;;;;;;18.30;16.30;;;17.70;99.90;;;;;;5052808;28;20424;-72
2021/08/18 08:31:31;;;;;;;19.27;17.20;;;17.80;99.90;;;;;;5053541;28;20240;-72
2021/08/18 08:33:56;;;;;;;21.10;16.87;;;17.80;99.90;;;;;;5053060;28;20304;-72
2021/08/18 08:36:22;;;;;;;19.40;16.00;;;17.90;99.90;;;;;;5053651;28;20186;-72
2021/08/18 08:38:47;;;;;;;19.67;16.70;;;17.90;99.90;;;;;;5053075;28;20542;-73
2021/08/18 08:41:15;;;;;;;19.80;16.37;;;17.80;99.90;;;;;;5052759;28;20194;-73
2021/08/18 08:43:41;;;;;;;20.30;15.50;;;17.90;99.90;;;;;;5052681;28;20167;-72
2021/08/18 08:46:07;;;;;;;19.27;16.03;;;17.90;99.90;;;;;;5035326;28;21008;-73
2021/08/18 08:48:33;;;;;;;22.00;17.93;;;17.90;99.90;;;;;;5054929;28;20197;-72
2021/08/18 08:50:59;;;;;;;19.87;15.80;;;17.80;99.90;;;;;;5056944;28;20527;-71
2021/08/18 08:53:25;;;;;;;20.43;15.40;;;17.80;99.90;;;;;;5056713;28;20832;-71
2021/08/18 08:55:53;;;;;;;20.03;16.47;;;17.80;99.90;;;;;;5057202;28;20584;-72
2021/08/18 08:58:18;;;;;;;16.13;14.43;;;17.80;99.90;;;;;;5056267;28;20184;-72
2021/08/18 09:00:44;;;;;;;19.90;17.80;;;17.90;99.90;;;;;;5055401;28;20424;-72
2021/08/18 09:03:15;;;;;;;19.57;17.57;;;17.90;99.90;;;;;;5056349;28;20174;-72
2021/08/18 09:05:40;;;;;;;18.50;16.07;;;18.00;99.90;;;;;;5056054;28;20182;-72
2021/08/18 09:08:11;;;;;;;17.03;15.23;;;18.10;99.90;;;;;;5056501;28;20907;-73
2021/08/18 09:10:36;;;;;;;19.07;15.23;;;18.20;99.90;;;;;;5056403;28;20247;-72
2021/08/18 09:13:12;;;;;;;18.07;14.83;;;18.30;99.90;;;;;;5056167;28;20916;-72
2021/08/18 09:15:38;;;;;;;16.97;14.87;;;18.30;99.90;;;;;;5056252;28;20189;-72
2021/08/18 09:18:04;;;;;;;17.60;15.67;;;18.30;99.90;;;;;;5056033;28;20441;-72
2021/08/18 09:20:29;;;;;;;17.13;14.63;;;18.30;99.90;;;;;;5055909;28;20424;-72
2021/08/18 09:22:57;;;;;;;15.53;13.93;;;18.30;99.90;;;;;;5056326;28;20177;-72
2021/08/18 09:25:28;;;;;;;16.00;14.33;;;18.30;99.90;;;;;;5055977;28;20194;-73
2021/08/18 09:28:04;;;;;;;17.07;15.27;;;18.20;99.90;;;;;;5057463;28;20424;-73
2021/08/18 09:30:38;;;;;;;17.60;14.90;;;18.20;99.90;;;;;;5055997;28;20424;-73
2021/08/18 09:33:11;;;;;;;17.53;15.70;;;18.20;99.90;;;;;;5056755;28;20937;-72
2021/08/18 09:35:38;;;;;;;18.63;15.20;;;18.20;99.90;;;;;;5055529;28;20464;-72
2021/08/18 09:38:06;;;;;;;16.90;15.10;;;18.10;99.90;;;;;;5056208;28;20436;-72
2021/08/18 09:40:34;;;;;;;18.60;16.70;;;18.10;99.90;;;;;;5055947;28;20424;-72
2021/08/18 09:43:16;;;;;;;17.13;15.43;;;18.20;99.90;;;;;;5057920;28;20409;-72
2021/08/18 09:45:44;;;;;;;17.50;15.80;;;18.40;99.90;;;;;;5055599;28;20420;-72
2021/08/18 09:48:18;;;;;;;15.23;13.63;;;18.50;99.90;;;;;;5057579;28;20217;-72
2021/08/18 09:50:45;;;;;;;14.43;12.70;;;18.50;99.90;;;;;;5056376;28;20845;-72
2021/08/18 09:53:18;;;;;;;13.73;12.33;;;18.50;99.90;;;;;;5056293;28;20415;-73
2021/08/18 09:56:07;;;;;;;13.43;12.00;;;18.50;99.90;;;;;;5055745;28;20502;-72
2021/08/18 09:58:36;;;;;;;11.63;10.53;;;18.60;99.90;;;;;;5046800;28;20516;-72
2021/08/18 10:01:14;;;;;;;11.47;10.37;;;18.60;99.90;;;;;;5055934;28;20423;-72
2021/08/18 10:03:44;;;;;;;11.90;10.70;;;18.70;99.90;;;;;;5055397;28;20389;-73
2021/08/18 10:06:11;;;;;;;11.73;10.60;;;18.60;99.90;;;;;;5055707;28;20440;-73
2021/08/18 10:08:39;;;;;;;12.20;11.10;;;18.60;99.90;;;;;;5055147;28;20412;-73
2021/08/18 10:11:07;;;;;;;12.20;9.70;;;18.40;99.90;;;;;;5055308;28;20432;-73
2021/08/18 10:13:33;;;;;;;10.17;9.20;;;18.50;99.90;;;;;;5055756;28;20435;-73
2021/08/18 10:15:59;;;;;;;10.40;9.33;;;18.50;99.90;;;;;;5054911;28;20468;-72
2021/08/18 10:18:33;;;;;;;9.93;9.00;;;18.50;99.90;;;;;;5054871;28;20499;-73
2021/08/18 10:21:06;;;;;;;10.20;9.20;;;18.50;99.90;;;;;;5037437;28;20445;-72
2021/08/18 10:23:51;;;;;;;9.63;8.73;;;18.50;99.90;;;;;;5036873;28;20424;-72
2021/08/18 10:26:34;;;;;;;9.87;8.87;;;18.50;99.90;;;;;;5054921;28;20412;-73
2021/08/18 10:29:06;;;;;;;10.20;8.40;;;18.60;99.90;;;;;;5036700;28;20420;-72
2021/08/18 10:31:40;;;;;;;8.60;7.80;;;18.70;99.90;;;;;;5054869;28;20510;-73
2021/08/18 10:34:07;;;;;;;9.13;8.23;;;18.70;99.90;;;;;;5036693;28;20428;-73
2021/08/18 10:36:41;;;;;;;9.10;8.20;;;18.70;99.90;;;;;;5054362;28;20404;-72
2021/08/18 10:39:19;;;;;;;8.93;8.10;;;18.70;99.90;;;;;;5054821;28;20422;-72
2021/08/18 10:42:06;;;;;;;9.20;8.30;;;18.60;99.90;;;;;;5036853;28;20468;-71
2021/08/18 10:44:45;;;;;;;9.30;8.40;;;18.60;99.90;;;;;;5054776;28;20420;-72
2021/08/18 10:47:11;;;;;;;7.50;6.83;;;18.60;99.90;;;;;;5036938;28;20431;-72
2021/08/18 10:49:36;;;;;;;7.97;7.17;;;18.50;99.90;;;;;;5053927;28;20880;-72
2021/08/18 10:52:02;;;;;;;9.00;7.53;;;18.60;99.90;;;;;;5036408;28;20194;-71
2021/08/18 10:54:27;;;;;;;7.37;6.70;;;18.70;99.90;;;;;;5036294;28;20762;-71
2021/08/18 10:56:58;;;;;;;9.10;8.20;;;18.50;99.90;;;;;;5053425;28;20466;-72
2021/08/18 10:59:49;;;;;;;8.80;8.00;;;18.60;99.90;;;;;;5054083;28;20407;-71
2021/08/18 11:03:01;;;;;;;12.60;11.30;;;18.50;99.90;;;;;;5054652;28;20501;-72
2021/08/18 11:05:49;;;;;;;9.60;8.60;;;18.40;99.90;;;;;;4977656;28;20434;-72
2021/08/18 11:08:40;;;;;;;7.30;6.53;;;18.50;99.90;;;;;;4993551;28;20412;-72
2021/08/18 11:11:07;;;;;;;7.50;6.80;;;18.60;99.90;;;;;;4992915;28;20794;-72
2021/08/18 11:13:52;;;;;;;6.63;6.10;;;18.70;99.90;;;;;;4992474;28;20415;-73
2021/08/18 11:16:36;;;;;;;6.03;5.53;;;19.00;99.90;;;;;;4992806;28;20465;-73
2021/08/18 11:19:07;;;;;;;4.77;4.37;;;19.10;99.90;;;;;;4992481;28;20830;-72
2021/08/18 11:21:35;;;;;;;6.23;5.63;;;19.40;99.90;;;;;;4992721;28;20451;-73
2021/08/18 11:24:04;;;;;;;5.73;4.80;;;19.60;99.90;;;;;;4992635;28;20411;-73
2021/08/18 11:26:32;;;;;;;5.90;5.50;;;19.70;99.90;;;;;;4992220;28;20434;-73
2021/08/18 11:29:09;;;;;;;5.23;4.80;;;19.80;99.90;;;;;;4992820;28;20412;-72
2021/08/18 11:31:45;;;;;;;4.23;3.93;;;19.80;99.90;;;;;;4992565;28;20477;-74
2021/08/18 11:34:39;;;;;;;5.10;4.60;;;19.80;99.90;;;;;;4992271;28;20431;-73
2021/08/18 11:37:10;;;;;;;4.10;3.70;;;20.00;99.90;;;;;;4975604;28;20420;-73
2021/08/18 11:39:38;;;;;;;4.47;4.07;;;20.00;99.90;;;;;;5031839;28;20405;-72
2021/08/18 11:42:11;;;;;;;4.23;3.93;;;20.10;99.90;;;;;;5053668;28;20400;-72
2021/08/18 11:44:39;;;;;;;4.97;4.57;;;20.10;99.90;;;;;;5053472;28;20543;-73
2021/08/18 11:47:15;;;;;;;4.93;4.53;;;20.00;99.90;;;;;;5054337;28;20447;-72
2021/08/18 11:49:43;;;;;;;4.90;4.50;;;19.90;99.90;;;;;;5053398;28;20436;-72
2021/08/18 11:52:18;;;;;;;4.30;3.90;;;20.00;99.90;;;;;;5053213;28;20428;-72
2021/08/18 11:54:58;;;;;;;5.00;4.60;;;19.80;99.90;;;;;;5035398;28;20452;-73
2021/08/18 11:57:25;;;;;;;4.80;4.33;;;19.60;99.90;;;;;;5053544;28;20424;-72
2021/08/18 11:59:56;;;;;;;5.40;4.90;;;19.70;99.90;;;;;;5053430;28;20430;-72
2021/08/18 12:02:27;;;;;;;5.40;4.70;;;19.70;99.90;;;;;;5054004;28;20405;-73
2021/08/18 12:05:03;;;;;;;4.60;4.20;;;19.70;99.90;;;;;;5054182;28;20931;-73
2021/08/18 12:07:33;;;;;;;5.07;4.57;;;19.60;99.90;;;;;;5053615;28;20444;-73
2021/08/18 12:10:23;;;;;;;4.83;4.40;;;19.50;99.90;;;;;;5053431;28;20436;-73
2021/08/18 12:13:04;;;;;;;6.18;5.68;;;19.50;99.90;;;;;;5044687;28;21300;-71
2021/08/18 12:15:33;;;;;;;4.97;4.47;;;19.40;99.90;;;;;;5042992;28;20276;-71
2021/08/18 12:17:59;;;;;;;7.95;4.47;;;19.30;99.90;;;;;;5047807;28;20435;-71
2021/08/18 12:20:30;;;;;;;5.17;4.70;;;19.40;99.90;;;;;;5049657;28;20558;-71
2021/08/18 12:22:56;;;;;;;6.20;5.60;;;19.40;99.90;;;;;;5049997;28;20241;-71
2021/08/18 12:25:29;;;;;;;6.10;4.80;;;19.40;99.90;;;;;;5052347;28;20428;-72
2021/08/18 12:28:15;;;;;;;5.20;4.70;;;19.30;99.90;;;;;;5053831;28;20428;-72
2021/08/18 12:31:00;;;;;;;5.90;4.80;;;19.00;99.90;;;;;;5034568;28;20870;-72
2021/08/18 12:33:27;;;;;;;5.53;4.60;;;19.20;99.90;;;;;;5022086;28;20494;-73
2021/08/18 12:36:17;;;;;;;6.33;4.37;;;19.40;99.90;;;;;;5054425;28;20456;-72
2021/08/18 12:38:50;;;;;;;4.00;3.70;;;19.50;99.90;;;;;;5054271;28;20447;-72